Upstream stations:
Downstream station:
SHEF ID: TIPO2 North Fork Red River near Tipton
STATION TYPE:
Regulating: Stage = 14.00, Flow = 7741
STAGE RIV-FLOW BAT-LOAD
ft cfs volt
Ccp-Rev Ccp-Rev Ccp-Rev
(US/Central)
11/27 00:00 5.72 37 11.80
11/27 01:00 5.70 35 11.79
11/27 02:00 5.72 37 11.79
11/27 03:00 5.72 37 11.78
11/27 04:00 5.72 37 11.78
11/27 05:00 5.72 37 11.78
11/27 06:00 5.71 36 11.78
11/27 07:00 5.72 37 11.77
11/27 08:00 5.72 37 11.77
11/27 09:00 5.68 34 11.77
11/27 10:00 5.72 37 11.77
11/27 11:00 5.69 34 11.78
11/27 12:00 5.70 35 11.79
11/27 13:00 5.72 37 11.81
11/27 14:00 5.71 36 11.81
11/27 15:00 5.72 37 11.82
11/27 16:00 5.71 36 11.83
11/27 17:00 5.72 37 11.83
11/27 18:00 5.72 37 11.83
11/27 19:00 5.72 37 11.83
11/27 20:00 5.72 37 11.82
11/27 21:00 5.72 37 11.81
11/27 22:00 5.72 37 11.81
11/27 23:00 5.70 35 11.79